Time;durP1;ratioP1;P1;durP2;ratioP2;P2;SDS_P1;SDS_P2;PMS_P1;PMS_P2;Temp;Humidity;BMP_temperature;BMP_pressure;BME280_temperature;BME280_humidity;BME280_pressure;Samples;Min_cycle;Max_cycle;Signal;HPM_P1;HPM_P2
2023/03/29 00:02:10;;;;;;;;;;;;;;;7.21;100.00;100153.31;4969054;28;20000;-81
2023/03/29 00:04:40;;;;;;;;;;;;;;;7.23;100.00;100143.94;4957925;28;19926;-81
2023/03/29 00:07:08;;;;;;;;;;;;;;;7.24;100.00;100148.28;4967008;28;20017;-81
2023/03/29 00:09:36;;;;;;;;;;;;;;;7.21;100.00;100144.72;4968583;28;19966;-82
2023/03/29 00:12:03;;;;;;;;;;;;;;;7.23;100.00;100150.78;4973626;28;19953;-81
2023/03/29 00:14:31;;;;;;;;;;;;;;;7.24;100.00;100143.13;4973420;28;19922;-81
2023/03/29 00:16:59;;;;;;;;;;;;;;;7.28;100.00;100149.22;4969883;28;20368;-81
2023/03/29 00:19:27;;;;;;;;;;;;;;;7.25;100.00;100144.88;4965555;28;19933;-81
2023/03/29 00:21:57;;;;;;;;;;;;;;;7.20;100.00;100148.13;4971228;28;19926;-81
2023/03/29 00:24:24;;;;;;;;;;;;;;;7.14;100.00;100153.94;4962211;28;20466;-81
2023/03/29 00:26:52;;;;;;;;;;;;;;;7.08;100.00;100151.16;4967142;28;19937;-81
2023/03/29 00:29:20;;;;;;;;;;;;;;;7.10;100.00;100147.81;4966334;28;19926;-81
2023/03/29 00:31:55;;;;;;;;;;;;;;;7.16;100.00;100148.84;4972859;28;20383;-82
2023/03/29 00:34:31;;;;;;;;;;;;;;;7.20;100.00;100145.56;4974093;28;19985;-82
2023/03/29 00:37:00;;;;;;;;;;;;;;;7.17;100.00;100146.34;4973767;28;19933;-81
2023/03/29 00:39:28;;;;;;;;;;;;;;;7.16;100.00;100144.56;4964458;28;20013;-81
2023/03/29 00:41:56;;;;;;;;;;;;;;;7.11;100.00;100138.41;4964088;28;20008;-81
2023/03/29 00:44:42;;;;;;;;;;;;;;;7.18;100.00;100142.06;4967535;28;19922;-82
2023/03/29 00:47:10;;;;;;;;;;;;;;;7.08;100.00;100135.72;4969061;28;19929;-82
2023/03/29 00:49:38;;;;;;;;;;;;;;;7.12;100.00;100145.28;4965420;28;19922;-83
2023/03/29 00:52:08;;;;;;;;;;;;;;;7.10;100.00;100131.47;4965934;28;19930;-82
2023/03/29 00:54:37;;;;;;;;;;;;;;;7.10;100.00;100123.78;4971056;28;19932;-82
2023/03/29 00:57:08;;;;;;;;;;;;;;;7.07;100.00;100121.97;4967732;28;19977;-81
2023/03/29 00:59:36;;;;;;;;;;;;;;;7.04;100.00;100119.31;4966666;28;19922;-81
2023/03/29 01:02:06;;;;;;;;;;;;;;;7.01;100.00;100120.88;4966032;28;19922;-82
2023/03/29 01:04:35;;;;;;;;;;;;;;;6.99;100.00;100109.69;4957611;28;20397;-82
2023/03/29 01:07:05;;;;;;;;;;;;;;;6.96;100.00;100109.56;4967262;28;20016;-82
2023/03/29 01:09:36;;;;;;;;;;;;;;;6.93;100.00;100111.22;4967745;28;20545;-83
2023/03/29 01:12:09;;;;;;;;;;;;;;;6.81;100.00;100099.66;4971426;28;19922;-82
2023/03/29 01:14:40;;;;;;;;;;;;;;;6.79;100.00;100121.88;4969973;28;19922;-81
2023/03/29 01:17:08;;;;;;;;;;;;;;;6.72;100.00;100131.06;4965776;28;19971;-82
2023/03/29 01:19:39;;;;;;;;;;;;;;;6.68;100.00;100140.34;4970267;28;19928;-82
2023/03/29 01:22:14;;;;;;;;;;;;;;;6.68;100.00;100142.94;4965632;28;19922;-81
2023/03/29 01:24:51;;;;;;;;;;;;;;;6.62;100.00;100145.31;4965551;28;19966;-82
2023/03/29 01:27:24;;;;;;;;;;;;;;;6.54;100.00;100157.00;4960928;28;19933;-81
2023/03/29 01:29:56;;;;;;;;;;;;;;;6.49;100.00;100166.25;4968207;28;20020;-82
2023/03/29 01:32:29;;;;;;;;;;;;;;;6.44;100.00;100166.06;4962742;28;19974;-84
2023/03/29 01:34:59;;;;;;;;;;;;;;;6.31;100.00;100181.84;4971525;28;20033;-80
2023/03/29 01:37:30;;;;;;;;;;;;;;;6.32;100.00;100181.03;4966133;28;19968;-82
2023/03/29 01:39:59;;;;;;;;;;;;;;;6.39;100.00;100179.56;4969380;28;19956;-82
2023/03/29 01:42:39;;;;;;;;;;;;;;;6.44;100.00;100180.63;4971149;28;19922;-82
2023/03/29 01:45:11;;;;;;;;;;;;;;;6.46;100.00;100174.72;4973201;28;20471;-82
2023/03/29 01:47:45;;;;;;;;;;;;;;;6.52;100.00;100178.31;4970501;28;19930;-81
2023/03/29 01:50:14;;;;;;;;;;;;;;;6.47;100.00;100179.03;4967378;28;19921;-80
2023/03/29 01:52:45;;;;;;;;;;;;;;;6.45;100.00;100172.09;4970429;28;20371;-82
2023/03/29 01:55:16;;;;;;;;;;;;;;;6.50;100.00;100181.72;4972000;28;20389;-80
2023/03/29 01:57:45;;;;;;;;;;;;;;;6.50;100.00;100181.72;4975239;28;19922;-81
2023/03/29 02:00:16;;;;;;;;;;;;;;;6.56;100.00;100172.47;4972662;28;20013;-81
2023/03/29 02:02:45;;;;;;;;;;;;;;;6.62;100.00;100177.81;4973580;28;19929;-81
2023/03/29 02:05:14;;;;;;;;;;;;;;;6.66;100.00;100177.13;4978481;28;19922;-80
2023/03/29 02:07:44;;;;;;;;;;;;;;;6.73;100.00;100173.94;4969259;28;19925;-81
2023/03/29 02:10:13;;;;;;;;;;;;;;;6.75;100.00;100172.31;4975303;28;20013;-80
2023/03/29 02:12:41;;;;;;;;;;;;;;;6.69;100.00;100160.13;4977051;28;19922;-81
2023/03/29 02:15:12;;;;;;;;;;;;;;;6.81;100.00;100172.53;4976400;28;19998;-81
2023/03/29 02:17:42;;;;;;;;;;;;;;;6.83;100.00;100172.59;4963458;28;19933;-81
2023/03/29 02:20:13;;;;;;;;;;;;;;;6.84;100.00;100172.63;4972941;28;19976;-80
2023/03/29 02:22:47;;;;;;;;;;;;;;;6.85;100.00;100171.81;4970819;28;19922;-81
2023/03/29 02:25:16;;;;;;;;;;;;;;;6.87;100.00;100179.56;4970163;28;19965;-81
2023/03/29 02:27:44;;;;;;;;;;;;;;;6.91;100.00;100181.44;4975644;28;19922;-83
2023/03/29 02:30:13;;;;;;;;;;;;;;;6.89;100.00;100180.50;4970595;28;19954;-80
2023/03/29 02:32:49;;;;;;;;;;;;;;;6.92;100.00;100185.78;4973377;28;19929;-81
2023/03/29 02:35:21;;;;;;;;;;;;;;;6.94;100.00;100194.44;4975350;28;19941;-81
2023/03/29 02:37:53;;;;;;;;;;;;;;;6.97;100.00;100203.94;4968798;28;19926;-82
2023/03/29 02:40:22;;;;;;;;;;;;;;;6.95;100.00;100200.44;4973135;28;20002;-81
2023/03/29 02:42:50;;;;;;;;;;;;;;;6.96;100.00;100192.75;4975298;28;19922;-81
2023/03/29 02:45:19;;;;;;;;;;;;;;;6.99;100.00;100192.00;4964798;28;20021;-81
2023/03/29 02:47:50;;;;;;;;;;;;;;;7.00;100.00;100198.88;4970427;28;20404;-82
2023/03/29 02:50:18;;;;;;;;;;;;;;;7.02;100.00;100202.41;4964920;28;20001;-81
2023/03/29 02:52:52;;;;;;;;;;;;;;;7.00;100.00;100199.75;4968538;28;20021;-82
2023/03/29 02:55:22;;;;;;;;;;;;;;;6.97;100.00;100198.78;4967363;28;19950;-82
2023/03/29 02:57:49;;;;;;;;;;;;;;;6.95;100.00;100190.16;4969675;28;20016;-82
2023/03/29 03:00:19;;;;;;;;;;;;;;;6.95;100.00;100195.28;4966580;28;19922;-81
2023/03/29 03:02:49;;;;;;;;;;;;;;;6.91;100.00;100202.88;4967533;28;19922;-81
2023/03/29 03:05:18;;;;;;;;;;;;;;;6.88;100.00;100209.63;4967651;28;20340;-82
2023/03/29 03:07:45;;;;;;;;;;;;;;;6.88;100.00;100200.22;4970374;28;19956;-82
2023/03/29 03:10:13;;;;;;;;;;;;;;;6.90;100.00;100206.28;4967885;28;20388;-82
2023/03/29 03:12:41;;;;;;;;;;;;;;;6.92;100.00;100201.22;4967730;28;20020;-82
2023/03/29 03:15:09;;;;;;;;;;;;;;;6.93;100.00;100203.81;4971238;28;19929;-82
2023/03/29 03:17:38;;;;;;;;;;;;;;;6.92;100.00;100212.38;4970461;28;19930;-80
2023/03/29 03:20:11;;;;;;;;;;;;;;;6.93;100.00;100208.94;4967563;28;19941;-81
2023/03/29 03:22:41;;;;;;;;;;;;;;;6.93;100.00;100211.53;4969516;28;20610;-82
2023/03/29 03:25:10;;;;;;;;;;;;;;;6.95;100.00;100205.59;4965493;28;19997;-81
2023/03/29 03:27:39;;;;;;;;;;;;;;;6.95;100.00;100203.00;4970050;28;19922;-82
2023/03/29 03:30:09;;;;;;;;;;;;;;;6.93;100.00;100206.38;4970188;28;20005;-82
2023/03/29 03:32:36;;;;;;;;;;;;;;;6.93;100.00;100211.53;4965510;28;19923;-81
2023/03/29 03:35:06;;;;;;;;;;;;;;;6.88;100.00;100215.63;4974028;28;19973;-82
2023/03/29 03:37:37;;;;;;;;;;;;;;;6.89;100.00;100217.41;4970967;28;19933;-81
2023/03/29 03:40:10;;;;;;;;;;;;;;;6.89;100.00;100217.41;4972979;28;19933;-82
2023/03/29 03:42:38;;;;;;;;;;;;;;;6.87;100.00;100213.91;4973700;28;19926;-81
2023/03/29 03:45:07;;;;;;;;;;;;;;;6.83;100.00;100226.59;4972491;28;19933;-82
2023/03/29 03:47:36;;;;;;;;;;;;;;;6.81;100.00;100229.09;4973664;28;19922;-82
2023/03/29 03:50:07;;;;;;;;;;;;;;;6.81;100.00;100233.38;4968904;28;19922;-82
2023/03/29 03:52:37;;;;;;;;;;;;;;;6.79;100.00;100233.31;4973032;28;19984;-81
2023/03/29 03:55:05;;;;;;;;;;;;;;;6.80;100.00;100227.34;4970366;28;19921;-81
2023/03/29 03:57:36;;;;;;;;;;;;;;;6.80;100.00;100231.59;4960011;28;19926;-81
2023/03/29 04:00:08;;;;;;;;;;;;;;;6.80;100.00;100231.59;4972907;28;19966;-81
2023/03/29 04:02:38;;;;;;;;;;;;;;;6.78;100.00;100240.97;4968727;28;19936;-81
2023/03/29 04:05:07;;;;;;;;;;;;;;;6.77;100.00;100247.81;4957748;28;19923;-81
2023/03/29 04:07:37;;;;;;;;;;;;;;;6.77;100.00;100255.53;4959923;28;19956;-81
2023/03/29 04:10:07;;;;;;;;;;;;;;;6.76;100.00;100251.22;4969782;28;19969;-81
2023/03/29 04:12:36;;;;;;;;;;;;;;;6.76;100.00;100258.94;4966990;28;19925;-81
2023/03/29 04:15:03;;;;;;;;;;;;;;;6.75;100.00;100254.59;4973680;28;19929;-81
2023/03/29 04:17:33;;;;;;;;;;;;;;;6.76;100.00;100258.94;4970082;28;20396;-81
2023/03/29 04:20:08;;;;;;;;;;;;;;;6.76;100.00;100268.31;4973868;28;20009;-82
2023/03/29 04:22:38;;;;;;;;;;;;;;;6.74;100.00;100270.84;4971463;28;19998;-81
2023/03/29 04:25:07;;;;;;;;;;;;;;;6.73;100.00;100276.78;4971628;28;19922;-81
2023/03/29 04:27:35;;;;;;;;;;;;;;;6.72;100.00;100269.91;4962640;28;19965;-82
2023/03/29 04:30:02;;;;;;;;;;;;;;;6.70;100.00;100267.28;4967532;28;20408;-81
2023/03/29 04:32:30;;;;;;;;;;;;;;;6.68;100.00;100275.75;4972549;28;19922;-82
2023/03/29 04:34:58;;;;;;;;;;;;;;;6.67;100.00;100282.59;4972247;28;19929;-81
2023/03/29 04:37:26;;;;;;;;;;;;;;;6.67;100.00;100286.88;4967393;28;19930;-81
2023/03/29 04:39:56;;;;;;;;;;;;;;;6.68;100.00;100288.59;4963990;28;19929;-81
2023/03/29 04:42:24;;;;;;;;;;;;;;;6.68;100.00;100286.03;4960271;28;19982;-82
2023/03/29 04:44:52;;;;;;;;;;;;;;;6.68;100.00;100283.47;4970846;28;20301;-82
2023/03/29 04:47:20;;;;;;;;;;;;;;;6.62;100.00;100286.69;4973713;28;20012;-81
2023/03/29 04:49:47;;;;;;;;;;;;;;;6.69;100.00;100290.38;4968876;28;19958;-82
2023/03/29 04:52:15;;;;;;;;;;;;;;;6.70;100.00;100292.97;4969671;28;19926;-82
2023/03/29 04:54:43;;;;;;;;;;;;;;;6.71;100.00;100283.56;4971305;28;20012;-80
2023/03/29 04:57:13;;;;;;;;;;;;;;;6.64;100.00;100279.91;4967448;28;19972;-82
2023/03/29 04:59:42;;;;;;;;;;;;;;;6.73;100.00;100284.50;4960548;28;20386;-82
2023/03/29 05:02:10;;;;;;;;;;;;;;;6.73;100.00;100284.50;4972286;28;20565;-82
2023/03/29 05:04:38;;;;;;;;;;;;;;;6.73;100.00;100292.22;4967124;28;19969;-83
2023/03/29 05:07:06;;;;;;;;;;;;;;;6.72;100.00;100286.19;4966844;28;19922;-82
2023/03/29 05:09:34;;;;;;;;;;;;;;;6.72;100.00;100291.34;4970459;28;19930;-82
2023/03/29 05:12:02;;;;;;;;;;;;;;;6.71;100.00;100293.84;4969088;28;19926;-82
2023/03/29 05:14:32;;;;;;;;;;;;;;;6.70;100.00;100294.69;4972899;28;19926;-81
2023/03/29 05:17:00;;;;;;;;;;;;;;;6.68;100.00;100294.63;4970418;28;20020;-82
2023/03/29 05:19:27;;;;;;;;;;;;;;;6.67;100.00;100287.72;4973322;28;20006;-81
2023/03/29 05:21:55;;;;;;;;;;;;;;;6.65;100.00;100291.94;4968041;28;19925;-82
2023/03/29 05:24:23;;;;;;;;;;;;;;;6.65;100.00;100284.22;4969437;28;19977;-81
2023/03/29 05:26:51;;;;;;;;;;;;;;;6.63;100.00;100288.44;4967642;28;19932;-82
2023/03/29 05:29:19;;;;;;;;;;;;;;;6.56;100.00;100283.00;4969076;28;19922;-82
2023/03/29 05:31:49;;;;;;;;;;;;;;;6.61;100.00;100294.34;4967019;28;19997;-81
2023/03/29 05:34:17;;;;;;;;;;;;;;;6.59;100.00;100283.13;4971410;28;19922;-82
2023/03/29 05:36:45;;;;;;;;;;;;;;;6.57;100.00;100282.19;4969375;28;19922;-82
2023/03/29 05:39:13;;;;;;;;;;;;;;;6.53;100.00;100273.50;4969959;28;19960;-81
2023/03/29 05:41:42;;;;;;;;;;;;;;;6.50;100.00;100274.25;4968630;28;19923;-82
2023/03/29 05:44:09;;;;;;;;;;;;;;;6.50;100.00;100269.13;4970106;28;19926;-81
2023/03/29 05:46:37;;;;;;;;;;;;;;;6.41;100.00;100255.88;4966052;28;19988;-81
2023/03/29 05:49:07;;;;;;;;;;;;;;;6.48;100.00;100269.84;4972202;28;19977;-81
2023/03/29 05:51:35;;;;;;;;;;;;;;;6.44;100.00;100268.88;4961736;28;19937;-81
2023/03/29 05:54:02;;;;;;;;;;;;;;;6.32;100.00;100258.09;4969801;28;19998;-81
2023/03/29 05:56:30;;;;;;;;;;;;;;;6.38;100.00;100288.31;4959412;28;19978;-82
2023/03/29 05:58:58;;;;;;;;;;;;;;;6.33;100.00;100285.56;4969070;28;19926;-82
2023/03/29 06:01:32;;;;;;;;;;;;;;;6.30;100.00;100282.88;4969665;28;19980;-82
2023/03/29 06:04:02;;;;;;;;;;;;;;;6.25;100.00;100282.72;4959562;28;20026;-83
2023/03/29 06:06:31;;;;;;;;;;;;;;;6.11;100.00;100264.97;4972722;28;19944;-82
2023/03/29 06:09:00;;;;;;;;;;;;;;;6.19;100.00;100271.31;4960914;28;19969;-82
2023/03/29 06:11:27;;;;;;;;;;;;;;;6.17;100.00;100270.38;4966608;28;20017;-83
2023/03/29 06:13:56;;;;;;;;;;;;;;;6.16;100.00;100278.88;4964755;28;19968;-82
2023/03/29 06:16:24;;;;;;;;;;;;;;;6.12;100.00;100267.63;4968592;28;19941;-81
2023/03/29 06:18:52;;;;;;;;;;;;;;;6.12;100.00;100269.31;4967327;28;19989;-82
2023/03/29 06:21:20;;;;;;;;;;;;;;;6.10;100.00;100276.97;4965784;28;20091;-81
2023/03/29 06:23:49;;;;;;;;;;;;;;;6.10;100.00;100270.94;4966681;28;19926;-82
2023/03/29 06:26:17;;;;;;;;;;;;;;;6.08;100.00;100278.59;4967449;28;20751;-82
2023/03/29 06:28:47;;;;;;;;;;;;;;;6.06;100.00;100264.81;4963616;28;19930;-82
2023/03/29 06:31:15;;;;;;;;;;;;;;;6.03;100.00;100270.69;4966173;28;19929;-81
2023/03/29 06:33:43;;;;;;;;;;;;;;;5.99;100.00;100266.25;4970623;28;20223;-80
2023/03/29 06:36:12;;;;;;;;;;;;;;;5.94;100.00;100270.34;4970509;28;19926;-80
2023/03/29 06:38:40;;;;;;;;;;;;;;;5.92;100.00;100271.06;4973140;28;19922;-80
2023/03/29 06:41:25;;;;;;;;;;;;;;;5.92;100.00;100261.66;4970474;28;20013;-80
2023/03/29 06:43:56;;;;;;;;;;;;;;;5.91;100.00;100269.28;4968735;28;19941;-81
2023/03/29 06:46:24;;;;;;;;;;;;;;;5.88;100.00;100273.47;4970166;28;19922;-81
2023/03/29 06:48:52;;;;;;;;;;;;;;;5.84;100.00;100268.16;4966725;28;19930;-82
2023/03/29 06:51:23;;;;;;;;;;;;;;;5.81;100.00;100275.75;4958709;28;19981;-82
2023/03/29 06:53:53;;;;;;;;;;;;;;;5.76;100.00;100273.00;4965614;28;19936;-82
2023/03/29 06:59:02;;;;;;;;;;;;;;;5.68;100.00;100261.56;4968042;28;19922;-82
2023/03/29 07:01:30;;;;;;;;;;;;;;;5.65;100.00;100252.00;4968273;28;20430;-82
2023/03/29 07:04:03;;;;;;;;;;;;;;;5.64;100.00;100257.97;4968772;28;19922;-83
2023/03/29 07:06:30;;;;;;;;;;;;;;;5.62;100.00;100254.44;4960693;28;19926;-82
2023/03/29 07:09:00;;;;;;;;;;;;;;;5.60;100.00;100248.38;4962813;28;19923;-81
2023/03/29 07:11:28;;;;;;;;;;;;;;;5.58;100.00;100250.00;4972494;28;20420;-82
2023/03/29 07:13:56;;;;;;;;;;;;;;;5.56;100.00;100249.06;4971802;28;19989;-82
2023/03/29 07:16:26;;;;;;;;;;;;;;;5.55;100.00;100255.03;4972766;28;20581;-81
2023/03/29 07:18:53;;;;;;;;;;;;;;;5.53;100.00;100250.63;4970713;28;19930;-81
2023/03/29 07:21:21;;;;;;;;;;;;;;;5.50;100.00;100245.34;4970900;28;19973;-82
2023/03/29 07:23:51;;;;;;;;;;;;;;;5.48;100.00;100254.72;4973162;28;19926;-82
2023/03/29 07:26:19;;;;;;;;;;;;;;;5.44;100.00;100257.13;4967488;28;19926;-82
2023/03/29 07:28:49;;;;;;;;;;;;;;;5.41;100.00;100254.44;4967109;28;19922;-83
2023/03/29 07:31:17;;;;;;;;;;;;;;;5.39;100.00;100250.06;4962021;28;20002;-83
2023/03/29 07:33:51;;;;;;;;;;;;;;;5.37;100.00;100250.00;4970754;28;19922;-83
2023/03/29 07:36:19;;;;;;;;;;;;;;;5.34;100.00;100251.56;4972988;28;19926;-81
2023/03/29 07:38:47;;;;;;;;;;;;;;;5.30;100.00;100250.53;4970489;28;19966;-82
2023/03/29 07:41:17;;;;;;;;;;;;;;;5.28;100.00;100247.03;4970113;28;19971;-83
2023/03/29 07:43:49;;;;;;;;;;;;;;;5.28;100.00;100247.03;4971371;28;19937;-83
2023/03/29 07:46:18;;;;;;;;;;;;;;;5.25;100.00;100240.09;4970132;28;19922;-83
2023/03/29 07:48:47;;;;;;;;;;;;;;;5.23;100.00;100241.72;4974398;28;20009;-84
2023/03/29 07:51:17;;;;;;;;;;;;;;;5.22;100.00;100246.75;4960906;28;19926;-81
2023/03/29 07:53:45;;;;;;;;;;;;;;;5.19;100.00;100242.38;4967150;28;20434;-82
2023/03/29 07:56:13;;;;;;;;;;;;;;;5.16;100.00;100244.81;4963579;28;20002;-80
2023/03/29 07:58:42;;;;;;;;;;;;;;;5.14;100.00;100246.44;4969110;28;20000;-83
2023/03/29 08:01:14;;;;;;;;;;;;;;;5.12;100.00;100245.50;4964114;28;19933;-82
2023/03/29 08:03:42;;;;;;;;;;;;;;;5.06;100.00;100247.78;4967125;28;19953;-83
2023/03/29 08:06:11;;;;;;;;;;;;;;;4.98;100.00;100249.16;4966500;28;19922;-80
2023/03/29 08:08:39;;;;;;;;;;;;;;;4.90;100.00;100240.25;4965986;28;19993;-80
2023/03/29 08:11:07;;;;;;;;;;;;;;;4.86;100.00;100233.25;4969754;28;20051;-80
2023/03/29 08:13:35;;;;;;;;;;;;;;;4.83;100.00;100232.31;4973250;28;19926;-79
2023/03/29 08:16:19;;;;;;;;;;;;;;;4.85;100.00;100226.34;4965192;28;19922;-80
2023/03/29 08:18:48;;;;;;;;;;;;;;;4.85;100.00;100221.22;4967614;28;20327;-81
2023/03/29 08:21:18;;;;;;;;;;;;;;;4.85;100.00;100221.22;4964127;28;19957;-81
2023/03/29 08:23:46;;;;;;;;;;;;;;;4.86;100.00;100223.00;4967717;28;19930;-81
2023/03/29 08:26:16;;;;;;;;;;;;;;;4.83;100.00;100224.63;4961263;28;19934;-81
2023/03/29 08:28:44;;;;;;;;;;;;;;;4.81;100.00;100217.66;4968985;28;20355;-81
2023/03/29 08:31:11;;;;;;;;;;;;;;;4.78;100.00;100210.69;4970117;28;19969;-82
2023/03/29 08:33:41;;;;;;;;;;;;;;;4.75;100.00;100215.69;4974410;28;19922;-81
2023/03/29 08:36:09;;;;;;;;;;;;;;;4.70;100.00;100219.75;4961990;28;19930;-79
2023/03/29 08:38:38;;;;;;;;;;;;;;;4.62;100.00;100221.09;4971096;28;19922;-81
2023/03/29 08:41:12;;;;;;;;;;;;;;;4.56;100.00;100224.25;4973449;28;19926;-80
2023/03/29 08:43:53;;;;;;;;;;;;;;;4.58;100.00;100232.00;4969915;28;19922;-80
2023/03/29 08:46:27;;;;;;;;;;;;;;;4.56;100.00;100234.50;4961970;28;19923;-80
2023/03/29 08:49:04;;;;;;;;;;;;;;;4.55;100.00;100227.63;4970832;28;19998;-80
2023/03/29 08:51:39;;;;;;;;;;;;;;;4.54;100.00;100225.88;4970730;28;19926;-80
2023/03/29 08:54:13;;;;;;;;;;;;;;;4.52;100.00;100231.75;4968897;28;19928;-80
2023/03/29 08:56:44;;;;;;;;;;;;;;;4.48;100.00;100229.84;4967919;28;19922;-81
2023/03/29 08:59:18;;;;;;;;;;;;;;;4.46;100.00;100236.56;4972715;28;19937;-81
2023/03/29 09:01:48;;;;;;;;;;;;;;;4.41;100.00;100232.13;4965480;28;19976;-80
2023/03/29 09:04:17;;;;;;;;;;;;;;;4.40;100.00;100232.06;4965162;28;21038;-81
2023/03/29 09:06:45;;;;;;;;;;;;;;;4.37;100.00;100227.66;4966423;28;19933;-79
2023/03/29 09:09:18;;;;;;;;;;;;;;;4.33;100.00;100236.03;4969348;28;20028;-80
2023/03/29 09:12:01;;;;;;;;;;;;;;;4.26;100.00;100228.88;4972665;28;19925;-80
2023/03/29 09:14:56;;;;;;;;;;;;;;;4.13;100.00;100221.44;4969299;28;20025;-81
2023/03/29 09:17:31;;;;;;;;;;;;;;;4.16;100.00;100236.91;4918900;28;19930;-79
2023/03/29 09:20:05;;;;;;;;;;;;;;;4.12;100.00;100235.00;4966388;28;19929;-80
2023/03/29 09:22:35;;;;;;;;;;;;;;;4.09;100.00;100240.00;4968252;28;19957;-80
2023/03/29 09:25:12;;;;;;;;;;;;;;;4.04;100.00;100242.34;4970969;28;19922;-80
2023/03/29 09:27:45;;;;;;;;;;;;;;;3.99;100.00;100244.69;4971698;28;20013;-80
2023/03/29 09:30:23;;;;;;;;;;;;;;;3.97;100.00;100246.28;4964451;28;20020;-80
2023/03/29 09:32:53;;;;;;;;;;;;;;;3.89;100.00;100249.28;4973560;28;19993;-81
2023/03/29 09:35:25;;;;;;;;;;;;;;;3.85;100.00;100250.84;4970045;28;20008;-80
2023/03/29 09:37:54;;;;;;;;;;;;;;;3.84;100.00;100256.75;4969237;28;20001;-80
2023/03/29 09:40:28;;;;;;;;;;;;;;;3.84;100.00;100246.50;4965279;28;20392;-79
2023/03/29 09:42:56;;;;;;;;;;;;;;;3.84;100.00;100240.50;4969244;28;19953;-80
2023/03/29 09:45:24;;;;;;;;;;;;;;;3.82;100.00;100244.69;4972057;28;19928;-80
2023/03/29 09:47:54;;;;;;;;;;;;;;;3.81;100.00;100238.69;4965990;28;20043;-78
2023/03/29 09:50:25;;;;;;;;;;;;;;;3.84;100.00;100248.19;4962041;28;19930;-80
2023/03/29 09:52:55;;;;;;;;;;;;;;;3.85;100.00;100248.28;4970398;28;19941;-79
2023/03/29 09:55:27;;;;;;;;;;;;;;;3.82;100.00;100244.69;4957512;28;19926;-80
2023/03/29 09:57:56;;;;;;;;;;;;;;;3.77;100.00;100240.22;4971514;28;19922;-79
2023/03/29 10:00:24;;;;;;;;;;;;;;;3.75;100.00;100243.50;4967927;28;19988;-80
2023/03/29 10:02:53;;;;;;;;;;;;;;;3.73;100.00;100235.78;4961340;28;19934;-80
2023/03/29 10:05:21;;;;;;;;;;;;;;;3.68;100.00;100236.34;4963833;28;19933;-80
2023/03/29 10:07:51;;;;;;;;;;;;;;;3.66;100.00;100240.50;4971282;28;19934;-80
2023/03/29 10:10:24;;;;;;;;;;;;;;;3.64;100.00;100240.44;4964360;28;19930;-80
2023/03/29 10:12:54;;;;;;;;;;;;;;;3.65;100.00;100243.88;4969803;28;20062;-80
2023/03/29 10:15:23;;;;;;;;;;;;;;;3.60;100.00;100237.63;4965793;28;20344;-80
2023/03/29 10:17:57;;;;;;;;;;;;;;;3.59;100.00;100246.13;4969633;28;20024;-79
2023/03/29 10:20:26;;;;;;;;;;;;;;;3.52;100.00;100243.25;4962528;28;20540;-79
2023/03/29 10:22:56;;;;;;;;;;;;;;;3.50;100.00;100242.28;4972168;28;19926;-79
2023/03/29 10:25:26;;;;;;;;;;;;;;;3.49;100.00;100230.31;4972589;28;20014;-79
2023/03/29 10:28:04;;;;;;;;;;;;;;;3.46;100.00;100225.06;4970123;28;20000;-80
2023/03/29 10:30:33;;;;;;;;;;;;;;;3.44;100.00;100224.09;4967166;28;19933;-80
2023/03/29 10:33:02;;;;;;;;;;;;;;;3.40;100.00;100214.53;4968624;28;19946;-79
2023/03/29 10:35:33;;;;;;;;;;;;;;;3.46;100.00;100230.19;4974155;28;19965;-79
2023/03/29 10:38:03;;;;;;;;;;;;;;;3.45;100.00;100232.66;4968192;28;20046;-80
2023/03/29 10:40:32;;;;;;;;;;;;;;;3.44;100.00;100234.34;4973904;28;19956;-79
2023/03/29 10:43:11;;;;;;;;;;;;;;;3.42;100.00;100223.16;4976336;28;19926;-79
2023/03/29 10:45:39;;;;;;;;;;;;;;;3.42;100.00;100228.25;4971716;28;20375;-79
2023/03/29 10:48:08;;;;;;;;;;;;;;;3.40;100.00;100229.00;4960952;28;19985;-79
2023/03/29 10:50:36;;;;;;;;;;;;;;;3.38;100.00;100220.38;4970108;28;19922;-79
2023/03/29 10:53:05;;;;;;;;;;;;;;;3.36;100.00;100227.94;4973369;28;19981;-79
2023/03/29 10:55:35;;;;;;;;;;;;;;;3.34;100.00;100232.09;4969560;28;19977;-80
2023/03/29 10:58:08;;;;;;;;;;;;;;;3.22;100.00;100224.72;4965753;28;20367;-79
2023/03/29 11:00:39;;;;;;;;;;;;;;;3.24;100.00;100227.34;4969293;28;19926;-79
2023/03/29 11:03:22;;;;;;;;;;;;;;;3.21;100.00;100233.19;4971616;28;19922;-79
2023/03/29 11:05:54;;;;;;;;;;;;;;;3.20;100.00;100231.41;4964554;28;19928;-79
2023/03/29 11:08:32;;;;;;;;;;;;;;;3.18;100.00;100230.47;4970495;28;20393;-79
2023/03/29 11:11:06;;;;;;;;;;;;;;;3.15;100.00;100238.84;4969973;28;19922;-79
2023/03/29 11:13:41;;;;;;;;;;;;;;;3.13;100.00;100234.47;4976195;28;19930;-79
2023/03/29 11:16:12;;;;;;;;;;;;;;;3.11;100.00;100233.50;4968913;28;19925;-79
2023/03/29 11:19:03;;;;;;;;;;;;;;;3.12;100.00;100228.47;4971470;28;20754;-80
2023/03/29 11:21:35;;;;;;;;;;;;;;;3.13;100.00;100227.66;4975057;28;20415;-80
2023/03/29 11:24:16;;;;;;;;;;;;;;;3.16;100.00;100237.16;4972902;28;19976;-79
2023/03/29 11:26:52;;;;;;;;;;;;;;;3.14;100.00;100232.00;4975097;28;19922;-80
2023/03/29 11:29:24;;;;;;;;;;;;;;;3.09;100.00;100228.34;4973071;28;19926;-79
2023/03/29 11:31:58;;;;;;;;;;;;;;;3.03;100.00;100233.13;4962968;28;20314;-80
2023/03/29 11:34:32;;;;;;;;;;;;;;;2.96;100.00;100230.19;4973356;28;19969;-79
2023/03/29 11:37:03;;;;;;;;;;;;;;;2.94;100.00;100248.00;4971399;28;19972;-79
2023/03/29 11:39:38;;;;;;;;;;;;;;;2.86;100.00;100239.94;4974513;28;20016;-79
2023/03/29 11:42:08;;;;;;;;;;;;;;;2.86;100.00;100246.69;4972787;28;19932;-79
2023/03/29 11:44:41;;;;;;;;;;;;;;;2.88;100.00;100260.44;4971139;28;19926;-80
2023/03/29 11:47:13;;;;;;;;;;;;;;;2.91;100.00;100260.63;4970743;28;19944;-79
2023/03/29 11:49:44;;;;;;;;;;;;;;;2.95;100.00;100262.50;4973430;28;19929;-80
2023/03/29 11:52:14;;;;;;;;;;;;;;;2.99;100.00;100267.00;4970377;28;20024;-79
2023/03/29 11:54:44;;;;;;;;;;;;;;;3.02;100.00;100256.91;4971339;28;19980;-80
2023/03/29 11:57:15;;;;;;;;;;;;;;;3.06;100.00;100261.38;4970120;28;20434;-80
2023/03/29 11:59:46;;;;;;;;;;;;;;;3.06;100.00;100253.72;4972873;28;20057;-79
2023/03/29 12:02:19;;;;;;;;;;;;;;;3.07;100.00;100254.59;4964515;28;19978;-80
2023/03/29 12:04:50;;;;;;;;;;;;;;;3.03;100.00;100248.47;4973303;28;19965;-79
2023/03/29 12:07:20;;;;;;;;;;;;;;;2.98;100.00;100254.13;4967468;28;19922;-80
2023/03/29 12:09:50;;;;;;;;;;;;;;;3.00;100.00;100258.53;4973399;28;19969;-79
2023/03/29 12:12:22;;;;;;;;;;;;;;;3.04;100.00;100265.53;4970389;28;19926;-80
2023/03/29 12:14:55;;;;;;;;;;;;;;;3.09;100.00;100268.34;4970155;28;19929;-80
2023/03/29 12:17:27;;;;;;;;;;;;;;;3.11;100.00;100265.06;4970552;28;19928;-79
2023/03/29 12:20:01;;;;;;;;;;;;;;;3.16;100.00;100275.50;4963820;28;19932;-79
2023/03/29 12:22:29;;;;;;;;;;;;;;;3.15;100.00;100274.66;4971236;28;20311;-79
2023/03/29 12:24:57;;;;;;;;;;;;;;;3.11;100.00;100274.41;4966988;28;19953;-79
2023/03/29 12:27:28;;;;;;;;;;;;;;;3.02;100.00;100272.25;4964978;28;20000;-79
2023/03/29 12:30:16;;;;;;;;;;;;;;;2.94;100.00;100281.22;4972543;28;19952;-79
2023/03/29 12:32:50;;;;;;;;;;;;;;;2.90;100.00;100281.84;4969190;28;19929;-79
2023/03/29 12:35:26;;;;;;;;;;;;;;;2.90;100.00;100281.84;4968760;28;19948;-79
2023/03/29 12:37:58;;;;;;;;;;;;;;;2.92;100.00;100275.13;4965232;28;19969;-79
2023/03/29 12:40:28;;;;;;;;;;;;;;;2.96;100.00;100271.94;4969282;28;20584;-80
2023/03/29 12:43:00;;;;;;;;;;;;;;;3.00;100.00;100270.41;4964513;28;20360;-79
2023/03/29 12:45:34;;;;;;;;;;;;;;;3.03;100.00;100276.56;4966011;28;19930;-80
2023/03/29 12:48:01;;;;;;;;;;;;;;;3.01;100.00;100285.84;4972091;28;19965;-79
2023/03/29 12:50:33;;;;;;;;;;;;;;;3.01;100.00;100285.84;4951742;28;20034;-78
2023/03/29 12:53:05;;;;;;;;;;;;;;;3.02;100.00;100285.03;4950372;28;20025;-79
2023/03/29 12:55:35;;;;;;;;;;;;;;;3.06;100.00;100284.41;4950004;28;19981;-79